sensor_id;sensor_type;location;lat;lon;timestamp;temperature;humidity
3492;DHT22;1760;52.480;13.422;2023-11-22T00:00:33;3.00;99.90
3492;DHT22;1760;52.480;13.422;2023-11-22T00:03:00;3.00;99.90
3492;DHT22;1760;52.480;13.422;2023-11-22T00:05:27;3.00;99.90
3492;DHT22;1760;52.480;13.422;2023-11-22T00:07:54;3.00;99.90
3492;DHT22;1760;52.480;13.422;2023-11-22T00:10:21;3.00;99.90
3492;DHT22;1760;52.480;13.422;2023-11-22T00:12:48;3.00;99.90
3492;DHT22;1760;52.480;13.422;2023-11-22T00:15:15;3.00;99.90
3492;DHT22;1760;52.480;13.422;2023-11-22T00:17:45;3.00;99.90
3492;DHT22;1760;52.480;13.422;2023-11-22T00:20:12;3.00;99.90
3492;DHT22;1760;52.480;13.422;2023-11-22T00:22:38;3.00;99.90
3492;DHT22;1760;52.480;13.422;2023-11-22T00:25:06;3.00;99.90
3492;DHT22;1760;52.480;13.422;2023-11-22T00:27:34;3.10;99.90
3492;DHT22;1760;52.480;13.422;2023-11-22T00:30:04;3.10;99.90
3492;DHT22;1760;52.480;13.422;2023-11-22T00:32:31;3.10;99.90
3492;DHT22;1760;52.480;13.422;2023-11-22T00:35:00;3.10;99.90
3492;DHT22;1760;52.480;13.422;2023-11-22T00:37:28;3.10;99.90
3492;DHT22;1760;52.480;13.422;2023-11-22T00:39:58;3.10;99.90
3492;DHT22;1760;52.480;13.422;2023-11-22T00:42:26;3.00;99.90
3492;DHT22;1760;52.480;13.422;2023-11-22T00:44:53;3.10;99.90
3492;DHT22;1760;52.480;13.422;2023-11-22T00:47:21;3.10;99.90
3492;DHT22;1760;52.480;13.422;2023-11-22T00:49:47;3.00;99.90
3492;DHT22;1760;52.480;13.422;2023-11-22T00:52:16;3.00;99.90
3492;DHT22;1760;52.480;13.422;2023-11-22T00:54:43;3.00;99.90
3492;DHT22;1760;52.480;13.422;2023-11-22T00:57:10;3.00;99.90
3492;DHT22;1760;52.480;13.422;2023-11-22T00:59:37;3.00;99.90
3492;DHT22;1760;52.480;13.422;2023-11-22T01:02:04;3.00;99.90
3492;DHT22;1760;52.480;13.422;2023-11-22T01:04:31;3.00;99.90
3492;DHT22;1760;52.480;13.422;2023-11-22T01:07:01;3.10;99.90
3492;DHT22;1760;52.480;13.422;2023-11-22T01:09:31;3.10;99.90
3492;DHT22;1760;52.480;13.422;2023-11-22T01:11:58;3.00;99.90
3492;DHT22;1760;52.480;13.422;2023-11-22T01:14:27;3.00;99.90
3492;DHT22;1760;52.480;13.422;2023-11-22T01:16:55;3.00;99.90
3492;DHT22;1760;52.480;13.422;2023-11-22T01:19:22;2.90;99.90
3492;DHT22;1760;52.480;13.422;2023-11-22T01:21:49;3.00;99.90
3492;DHT22;1760;52.480;13.422;2023-11-22T01:24:16;2.90;99.90
3492;DHT22;1760;52.480;13.422;2023-11-22T01:26:44;2.90;99.90
3492;DHT22;1760;52.480;13.422;2023-11-22T01:29:11;2.80;99.90
3492;DHT22;1760;52.480;13.422;2023-11-22T01:31:38;2.80;99.90
3492;DHT22;1760;52.480;13.422;2023-11-22T01:34:07;2.80;99.90
3492;DHT22;1760;52.480;13.422;2023-11-22T01:36:34;2.70;99.90
3492;DHT22;1760;52.480;13.422;2023-11-22T01:39:01;2.70;99.90
3492;DHT22;1760;52.480;13.422;2023-11-22T01:41:30;2.60;99.90
3492;DHT22;1760;52.480;13.422;2023-11-22T01:43:59;2.60;99.90
3492;DHT22;1760;52.480;13.422;2023-11-22T01:46:25;2.60;99.90
3492;DHT22;1760;52.480;13.422;2023-11-22T01:48:54;2.60;99.90
3492;DHT22;1760;52.480;13.422;2023-11-22T01:51:21;2.60;99.90
3492;DHT22;1760;52.480;13.422;2023-11-22T01:53:52;2.50;99.90
3492;DHT22;1760;52.480;13.422;2023-11-22T01:56:20;2.50;99.90
3492;DHT22;1760;52.480;13.422;2023-11-22T01:58:49;2.40;99.90
3492;DHT22;1760;52.480;13.422;2023-11-22T02:01:20;2.40;99.90
3492;DHT22;1760;52.480;13.422;2023-11-22T02:03:47;2.40;99.90
3492;DHT22;1760;52.480;13.422;2023-11-22T02:06:15;2.40;99.90
3492;DHT22;1760;52.480;13.422;2023-11-22T02:08:42;2.30;99.90
3492;DHT22;1760;52.480;13.422;2023-11-22T02:11:09;2.30;99.90
3492;DHT22;1760;52.480;13.422;2023-11-22T02:13:36;2.20;99.90
3492;DHT22;1760;52.480;13.422;2023-11-22T02:16:03;2.20;99.90
3492;DHT22;1760;52.480;13.422;2023-11-22T02:18:32;2.20;99.90
3492;DHT22;1760;52.480;13.422;2023-11-22T02:21:00;2.20;99.90
3492;DHT22;1760;52.480;13.422;2023-11-22T02:23:28;2.20;99.90
3492;DHT22;1760;52.480;13.422;2023-11-22T02:25:56;2.20;99.90
3492;DHT22;1760;52.480;13.422;2023-11-22T02:28:24;2.20;99.90
3492;DHT22;1760;52.480;13.422;2023-11-22T02:30:51;2.20;99.90
3492;DHT22;1760;52.480;13.422;2023-11-22T02:33:18;2.10;99.90
3492;DHT22;1760;52.480;13.422;2023-11-22T02:35:45;2.10;99.90
3492;DHT22;1760;52.480;13.422;2023-11-22T02:38:12;2.10;99.90
3492;DHT22;1760;52.480;13.422;2023-11-22T02:40:40;2.10;99.90
3492;DHT22;1760;52.480;13.422;2023-11-22T02:43:07;2.10;99.90
3492;DHT22;1760;52.480;13.422;2023-11-22T02:45:34;2.10;99.90
3492;DHT22;1760;52.480;13.422;2023-11-22T02:48:01;2.10;99.90
3492;DHT22;1760;52.480;13.422;2023-11-22T02:50:29;2.10;99.90
3492;DHT22;1760;52.480;13.422;2023-11-22T02:52:59;2.00;99.90
3492;DHT22;1760;52.480;13.422;2023-11-22T02:55:26;2.00;99.90
3492;DHT22;1760;52.480;13.422;2023-11-22T02:57:55;2.00;99.90
3492;DHT22;1760;52.480;13.422;2023-11-22T03:00:22;2.00;99.90
3492;DHT22;1760;52.480;13.422;2023-11-22T03:02:50;1.90;99.90
3492;DHT22;1760;52.480;13.422;2023-11-22T03:05:19;1.90;99.90
3492;DHT22;1760;52.480;13.422;2023-11-22T03:07:47;1.90;99.90
3492;DHT22;1760;52.480;13.422;2023-11-22T03:10:16;1.90;99.90
3492;DHT22;1760;52.480;13.422;2023-11-22T03:12:44;1.90;99.90
3492;DHT22;1760;52.480;13.422;2023-11-22T03:15:13;1.90;99.90
3492;DHT22;1760;52.480;13.422;2023-11-22T03:17:40;1.90;99.90
3492;DHT22;1760;52.480;13.422;2023-11-22T03:20:07;1.90;99.90
3492;DHT22;1760;52.480;13.422;2023-11-22T03:22:37;1.90;99.90
3492;DHT22;1760;52.480;13.422;2023-11-22T03:25:05;1.80;99.90
3492;DHT22;1760;52.480;13.422;2023-11-22T03:27:32;1.80;99.90
3492;DHT22;1760;52.480;13.422;2023-11-22T03:30:00;1.80;99.90
3492;DHT22;1760;52.480;13.422;2023-11-22T03:32:28;1.70;99.90
3492;DHT22;1760;52.480;13.422;2023-11-22T03:35:02;1.70;99.90
3492;DHT22;1760;52.480;13.422;2023-11-22T03:37:30;1.60;99.90
3492;DHT22;1760;52.480;13.422;2023-11-22T03:39:59;1.60;99.90
3492;DHT22;1760;52.480;13.422;2023-11-22T03:42:27;1.60;99.90
3492;DHT22;1760;52.480;13.422;2023-11-22T03:44:54;1.60;99.90
3492;DHT22;1760;52.480;13.422;2023-11-22T03:47:21;1.60;99.90
3492;DHT22;1760;52.480;13.422;2023-11-22T03:49:49;1.60;99.90
3492;DHT22;1760;52.480;13.422;2023-11-22T03:52:16;1.60;99.90
3492;DHT22;1760;52.480;13.422;2023-11-22T03:54:43;1.60;99.90
3492;DHT22;1760;52.480;13.422;2023-11-22T03:57:10;1.60;99.90
3492;DHT22;1760;52.480;13.422;2023-11-22T03:59:36;1.60;99.90
3492;DHT22;1760;52.480;13.422;2023-11-22T04:02:04;1.70;99.90
3492;DHT22;1760;52.480;13.422;2023-11-22T04:04:31;1.60;99.90
3492;DHT22;1760;52.480;13.422;2023-11-22T04:06:59;1.60;99.90
3492;DHT22;1760;52.480;13.422;2023-11-22T04:09:26;1.60;99.90
3492;DHT22;1760;52.480;13.422;2023-11-22T04:11:52;1.60;99.90
3492;DHT22;1760;52.480;13.422;2023-11-22T04:14:19;1.60;99.90
3492;DHT22;1760;52.480;13.422;2023-11-22T04:16:47;1.60;99.90
3492;DHT22;1760;52.480;13.422;2023-11-22T04:19:14;1.50;99.90
3492;DHT22;1760;52.480;13.422;2023-11-22T04:21:41;1.50;99.90
3492;DHT22;1760;52.480;13.422;2023-11-22T04:24:09;1.50;99.90
3492;DHT22;1760;52.480;13.422;2023-11-22T04:26:37;1.40;99.90
3492;DHT22;1760;52.480;13.422;2023-11-22T04:29:04;1.40;99.90
3492;DHT22;1760;52.480;13.422;2023-11-22T04:31:31;1.40;99.90
3492;DHT22;1760;52.480;13.422;2023-11-22T04:33:58;1.40;99.90
3492;DHT22;1760;52.480;13.422;2023-11-22T04:36:25;1.40;99.90
3492;DHT22;1760;52.480;13.422;2023-11-22T04:38:52;1.40;99.90
3492;DHT22;1760;52.480;13.422;2023-11-22T04:41:21;1.40;99.90
3492;DHT22;1760;52.480;13.422;2023-11-22T04:43:48;1.40;99.90
3492;DHT22;1760;52.480;13.422;2023-11-22T04:46:15;1.40;99.90
3492;DHT22;1760;52.480;13.422;2023-11-22T04:48:42;1.40;99.90
3492;DHT22;1760;52.480;13.422;2023-11-22T04:51:10;1.40;99.90
3492;DHT22;1760;52.480;13.422;2023-11-22T04:53:37;1.40;99.90
3492;DHT22;1760;52.480;13.422;2023-11-22T04:56:05;1.40;99.90
3492;DHT22;1760;52.480;13.422;2023-11-22T04:58:33;1.40;99.90
3492;DHT22;1760;52.480;13.422;2023-11-22T05:01:01;1.30;99.90
3492;DHT22;1760;52.480;13.422;2023-11-22T05:03:28;1.30;99.90
3492;DHT22;1760;52.480;13.422;2023-11-22T05:05:55;1.30;99.90
3492;DHT22;1760;52.480;13.422;2023-11-22T05:08:22;1.30;99.90
3492;DHT22;1760;52.480;13.422;2023-11-22T05:10:49;1.30;99.90
3492;DHT22;1760;52.480;13.422;2023-11-22T05:13:15;1.30;99.90
3492;DHT22;1760;52.480;13.422;2023-11-22T05:15:44;1.30;99.90
3492;DHT22;1760;52.480;13.422;2023-11-22T05:18:10;1.30;99.90
3492;DHT22;1760;52.480;13.422;2023-11-22T05:20:36;1.30;99.90
3492;DHT22;1760;52.480;13.422;2023-11-22T05:23:03;1.30;99.90
3492;DHT22;1760;52.480;13.422;2023-11-22T05:25:31;1.30;99.90
3492;DHT22;1760;52.480;13.422;2023-11-22T05:27:57;1.20;99.90
3492;DHT22;1760;52.480;13.422;2023-11-22T05:30:25;1.20;99.90
3492;DHT22;1760;52.480;13.422;2023-11-22T05:32:53;1.20;99.90
3492;DHT22;1760;52.480;13.422;2023-11-22T05:35:20;1.20;99.90
3492;DHT22;1760;52.480;13.422;2023-11-22T05:37:47;1.20;99.90
3492;DHT22;1760;52.480;13.422;2023-11-22T05:40:14;1.20;99.90
3492;DHT22;1760;52.480;13.422;2023-11-22T05:42:42;1.20;99.90
3492;DHT22;1760;52.480;13.422;2023-11-22T05:45:09;1.20;99.90
3492;DHT22;1760;52.480;13.422;2023-11-22T05:47:36;1.20;99.90
3492;DHT22;1760;52.480;13.422;2023-11-22T05:50:05;1.10;99.90
3492;DHT22;1760;52.480;13.422;2023-11-22T05:52:32;1.20;99.90
3492;DHT22;1760;52.480;13.422;2023-11-22T05:54:59;1.10;99.90
3492;DHT22;1760;52.480;13.422;2023-11-22T05:57:29;1.10;99.90
3492;DHT22;1760;52.480;13.422;2023-11-22T05:59:58;1.10;99.90
3492;DHT22;1760;52.480;13.422;2023-11-22T06:02:26;1.10;99.90
3492;DHT22;1760;52.480;13.422;2023-11-22T06:04:53;1.10;99.90
3492;DHT22;1760;52.480;13.422;2023-11-22T06:07:21;1.00;99.90
3492;DHT22;1760;52.480;13.422;2023-11-22T06:09:48;1.10;99.90
3492;DHT22;1760;52.480;13.422;2023-11-22T06:12:15;1.00;99.90
3492;DHT22;1760;52.480;13.422;2023-11-22T06:14:42;1.00;99.90
3492;DHT22;1760;52.480;13.422;2023-11-22T06:17:09;1.00;99.90
3492;DHT22;1760;52.480;13.422;2023-11-22T06:19:35;1.00;99.90
3492;DHT22;1760;52.480;13.422;2023-11-22T06:22:02;1.00;99.90
3492;DHT22;1760;52.480;13.422;2023-11-22T06:24:31;1.00;99.90
3492;DHT22;1760;52.480;13.422;2023-11-22T06:26:59;0.90;99.90
3492;DHT22;1760;52.480;13.422;2023-11-22T06:29:25;1.00;99.90
3492;DHT22;1760;52.480;13.422;2023-11-22T06:31:52;1.00;99.90
3492;DHT22;1760;52.480;13.422;2023-11-22T06:34:19;1.00;99.90
3492;DHT22;1760;52.480;13.422;2023-11-22T06:36:46;1.00;99.90
3492;DHT22;1760;52.480;13.422;2023-11-22T06:39:13;1.00;99.90
3492;DHT22;1760;52.480;13.422;2023-11-22T06:41:42;1.00;99.90
3492;DHT22;1760;52.480;13.422;2023-11-22T06:44:08;0.90;99.90
3492;DHT22;1760;52.480;13.422;2023-11-22T06:46:36;1.00;99.90
3492;DHT22;1760;52.480;13.422;2023-11-22T06:49:03;1.00;99.90
3492;DHT22;1760;52.480;13.422;2023-11-22T06:51:30;1.00;99.90
3492;DHT22;1760;52.480;13.422;2023-11-22T06:53:57;1.00;99.90
3492;DHT22;1760;52.480;13.422;2023-11-22T06:56:24;1.00;99.90
3492;DHT22;1760;52.480;13.422;2023-11-22T06:58:52;1.00;99.90
3492;DHT22;1760;52.480;13.422;2023-11-22T07:01:22;1.00;99.90
3492;DHT22;1760;52.480;13.422;2023-11-22T07:03:51;1.00;99.90
3492;DHT22;1760;52.480;13.422;2023-11-22T07:06:19;1.00;99.90
3492;DHT22;1760;52.480;13.422;2023-11-22T07:08:48;0.90;99.90
3492;DHT22;1760;52.480;13.422;2023-11-22T07:11:21;1.00;99.90
3492;DHT22;1760;52.480;13.422;2023-11-22T07:13:49;0.90;99.90
3492;DHT22;1760;52.480;13.422;2023-11-22T07:16:18;0.90;99.90
3492;DHT22;1760;52.480;13.422;2023-11-22T07:18:46;0.90;99.90
3492;DHT22;1760;52.480;13.422;2023-11-22T07:21:12;0.90;99.90
3492;DHT22;1760;52.480;13.422;2023-11-22T07:23:39;0.90;99.90
3492;DHT22;1760;52.480;13.422;2023-11-22T07:26:06;0.90;99.90
3492;DHT22;1760;52.480;13.422;2023-11-22T07:28:33;0.90;99.90
3492;DHT22;1760;52.480;13.422;2023-11-22T07:31:01;1.00;99.90
3492;DHT22;1760;52.480;13.422;2023-11-22T07:33:29;1.00;99.90
3492;DHT22;1760;52.480;13.422;2023-11-22T07:35:56;1.00;99.90
3492;DHT22;1760;52.480;13.422;2023-11-22T07:38:24;1.00;99.90
3492;DHT22;1760;52.480;13.422;2023-11-22T07:40:51;1.10;99.90
3492;DHT22;1760;52.480;13.422;2023-11-22T07:43:18;1.10;99.90
3492;DHT22;1760;52.480;13.422;2023-11-22T07:45:45;1.10;99.90
3492;DHT22;1760;52.480;13.422;2023-11-22T07:48:12;1.10;99.90
3492;DHT22;1760;52.480;13.422;2023-11-22T07:50:41;1.20;99.90
3492;DHT22;1760;52.480;13.422;2023-11-22T07:53:09;1.20;99.90
3492;DHT22;1760;52.480;13.422;2023-11-22T07:55:37;1.20;99.90
3492;DHT22;1760;52.480;13.422;2023-11-22T07:58:04;1.20;99.90
3492;DHT22;1760;52.480;13.422;2023-11-22T08:00:32;1.30;99.90
3492;DHT22;1760;52.480;13.422;2023-11-22T08:03:00;1.30;99.90
3492;DHT22;1760;52.480;13.422;2023-11-22T08:05:28;1.40;99.90
3492;DHT22;1760;52.480;13.422;2023-11-22T08:08:01;1.50;99.90
3492;DHT22;1760;52.480;13.422;2023-11-22T08:10:32;1.50;99.90
3492;DHT22;1760;52.480;13.422;2023-11-22T08:13:00;1.60;99.90
3492;DHT22;1760;52.480;13.422;2023-11-22T08:15:27;1.60;99.90
3492;DHT22;1760;52.480;13.422;2023-11-22T08:17:57;1.60;99.90
3492;DHT22;1760;52.480;13.422;2023-11-22T08:20:24;1.60;99.90
3492;DHT22;1760;52.480;13.422;2023-11-22T08:22:51;1.60;99.90
3492;DHT22;1760;52.480;13.422;2023-11-22T08:25:19;1.60;99.90
3492;DHT22;1760;52.480;13.422;2023-11-22T08:27:46;1.60;99.90
3492;DHT22;1760;52.480;13.422;2023-11-22T08:30:13;1.70;99.90
3492;DHT22;1760;52.480;13.422;2023-11-22T08:32:41;1.60;99.90
3492;DHT22;1760;52.480;13.422;2023-11-22T08:35:09;1.50;99.90
3492;DHT22;1760;52.480;13.422;2023-11-22T08:37:39;1.50;99.90
3492;DHT22;1760;52.480;13.422;2023-11-22T08:40:08;1.60;99.90
3492;DHT22;1760;52.480;13.422;2023-11-22T08:42:38;1.70;99.90
3492;DHT22;1760;52.480;13.422;2023-11-22T08:45:07;1.80;99.90
3492;DHT22;1760;52.480;13.422;2023-11-22T08:47:35;1.80;99.90
3492;DHT22;1760;52.480;13.422;2023-11-22T08:50:02;1.80;99.90
3492;DHT22;1760;52.480;13.422;2023-11-22T08:52:31;1.90;99.90
3492;DHT22;1760;52.480;13.422;2023-11-22T08:54:57;1.90;99.90
3492;DHT22;1760;52.480;13.422;2023-11-22T08:57:25;1.90;99.90
3492;DHT22;1760;52.480;13.422;2023-11-22T08:59:54;2.00;99.90
3492;DHT22;1760;52.480;13.422;2023-11-22T09:02:21;2.20;99.90
3492;DHT22;1760;52.480;13.422;2023-11-22T09:04:49;2.20;99.90
3492;DHT22;1760;52.480;13.422;2023-11-22T09:07:15;2.20;99.90
3492;DHT22;1760;52.480;13.422;2023-11-22T09:09:43;2.20;99.90
3492;DHT22;1760;52.480;13.422;2023-11-22T09:12:10;2.20;99.90
3492;DHT22;1760;52.480;13.422;2023-11-22T09:14:39;2.40;99.90
3492;DHT22;1760;52.480;13.422;2023-11-22T09:17:08;2.50;99.90
3492;DHT22;1760;52.480;13.422;2023-11-22T09:19:36;2.50;99.90
3492;DHT22;1760;52.480;13.422;2023-11-22T09:22:03;2.70;99.90
3492;DHT22;1760;52.480;13.422;2023-11-22T09:24:32;3.30;99.90
3492;DHT22;1760;52.480;13.422;2023-11-22T09:26:59;4.00;99.90
3492;DHT22;1760;52.480;13.422;2023-11-22T09:29:30;4.50;99.90
3492;DHT22;1760;52.480;13.422;2023-11-22T09:31:58;4.70;99.90
3492;DHT22;1760;52.480;13.422;2023-11-22T09:34:28;4.90;99.90
3492;DHT22;1760;52.480;13.422;2023-11-22T09:36:56;5.30;99.90
3492;DHT22;1760;52.480;13.422;2023-11-22T09:39:27;5.60;99.90
3492;DHT22;1760;52.480;13.422;2023-11-22T09:41:55;6.00;99.90
3492;DHT22;1760;52.480;13.422;2023-11-22T09:44:22;6.30;99.90
3492;DHT22;1760;52.480;13.422;2023-11-22T09:46:49;6.30;98.60
3492;DHT22;1760;52.480;13.422;2023-11-22T09:49:22;6.10;98.20
3492;DHT22;1760;52.480;13.422;2023-11-22T09:51:54;6.20;98.40
3492;DHT22;1760;52.480;13.422;2023-11-22T09:54:24;6.30;96.90
3492;DHT22;1760;52.480;13.422;2023-11-22T09:56:57;6.50;98.10
3492;DHT22;1760;52.480;13.422;2023-11-22T09:59:27;6.80;97.00
3492;DHT22;1760;52.480;13.422;2023-11-22T10:01:55;7.00;96.20
3492;DHT22;1760;52.480;13.422;2023-11-22T10:04:25;7.40;94.40
3492;DHT22;1760;52.480;13.422;2023-11-22T10:06:57;7.90;92.90
3492;DHT22;1760;52.480;13.422;2023-11-22T10:09:25;8.60;90.00
3492;DHT22;1760;52.480;13.422;2023-11-22T10:11:53;9.20;84.90
3492;DHT22;1760;52.480;13.422;2023-11-22T10:14:23;9.80;80.00
3492;DHT22;1760;52.480;13.422;2023-11-22T10:17:00;10.20;73.60
3492;DHT22;1760;52.480;13.422;2023-11-22T10:19:28;10.30;70.10
3492;DHT22;1760;52.480;13.422;2023-11-22T10:22:07;10.30;68.20
3492;DHT22;1760;52.480;13.422;2023-11-22T10:24:34;10.10;66.80
3492;DHT22;1760;52.480;13.422;2023-11-22T10:27:02;9.70;68.50
3492;DHT22;1760;52.480;13.422;2023-11-22T10:29:29;9.40;69.70
3492;DHT22;1760;52.480;13.422;2023-11-22T10:31:56;8.90;70.30
3492;DHT22;1760;52.480;13.422;2023-11-22T10:34:24;8.40;72.30
3492;DHT22;1760;52.480;13.422;2023-11-22T10:36:51;7.80;73.60
3492;DHT22;1760;52.480;13.422;2023-11-22T10:39:21;7.30;76.60
3492;DHT22;1760;52.480;13.422;2023-11-22T10:41:48;7.00;77.90
3492;DHT22;1760;52.480;13.422;2023-11-22T10:44:20;6.30;82.00
3492;DHT22;1760;52.480;13.422;2023-11-22T10:46:48;5.90;86.50
3492;DHT22;1760;52.480;13.422;2023-11-22T10:49:18;5.50;90.30
3492;DHT22;1760;52.480;13.422;2023-11-22T10:51:50;5.20;91.70
3492;DHT22;1760;52.480;13.422;2023-11-22T10:54:20;5.00;93.90
3492;DHT22;1760;52.480;13.422;2023-11-22T10:56:54;4.80;94.10
3492;DHT22;1760;52.480;13.422;2023-11-22T10:59:22;4.70;95.60
3492;DHT22;1760;52.480;13.422;2023-11-22T11:01:56;4.60;96.00
3492;DHT22;1760;52.480;13.422;2023-11-22T11:04:33;4.50;97.00
3492;DHT22;1760;52.480;13.422;2023-11-22T11:07:01;4.40;98.40
3492;DHT22;1760;52.480;13.422;2023-11-22T11:09:30;4.30;99.80
3492;DHT22;1760;52.480;13.422;2023-11-22T11:11:58;4.30;99.90
3492;DHT22;1760;52.480;13.422;2023-11-22T11:14:26;4.30;99.90
3492;DHT22;1760;52.480;13.422;2023-11-22T11:16:53;4.10;99.90
3492;DHT22;1760;52.480;13.422;2023-11-22T11:19:24;4.10;99.90
3492;DHT22;1760;52.480;13.422;2023-11-22T11:21:51;4.10;99.90
3492;DHT22;1760;52.480;13.422;2023-11-22T11:24:18;4.00;99.90
3492;DHT22;1760;52.480;13.422;2023-11-22T11:26:49;4.00;99.90
3492;DHT22;1760;52.480;13.422;2023-11-22T11:29:31;4.00;99.90
3492;DHT22;1760;52.480;13.422;2023-11-22T11:31:58;4.00;99.90
3492;DHT22;1760;52.480;13.422;2023-11-22T11:34:25;4.10;99.90
3492;DHT22;1760;52.480;13.422;2023-11-22T11:36:53;4.10;99.90
3492;DHT22;1760;52.480;13.422;2023-11-22T11:39:25;4.10;99.90
3492;DHT22;1760;52.480;13.422;2023-11-22T11:42:09;4.10;99.90
3492;DHT22;1760;52.480;13.422;2023-11-22T11:44:36;4.10;99.90
3492;DHT22;1760;52.480;13.422;2023-11-22T11:47:09;4.20;99.90
3492;DHT22;1760;52.480;13.422;2023-11-22T11:49:37;4.20;99.90
3492;DHT22;1760;52.480;13.422;2023-11-22T11:52:04;4.30;99.90
3492;DHT22;1760;52.480;13.422;2023-11-22T11:54:46;4.30;99.90
3492;DHT22;1760;52.480;13.422;2023-11-22T11:57:17;4.30;99.90
3492;DHT22;1760;52.480;13.422;2023-11-22T11:59:44;4.30;99.90
3492;DHT22;1760;52.480;13.422;2023-11-22T12:02:12;4.30;99.90
3492;DHT22;1760;52.480;13.422;2023-11-22T12:04:38;4.20;99.90
3492;DHT22;1760;52.480;13.422;2023-11-22T12:07:11;4.20;99.90
3492;DHT22;1760;52.480;13.422;2023-11-22T12:09:38;4.20;99.90
3492;DHT22;1760;52.480;13.422;2023-11-22T12:12:06;4.20;99.90
3492;DHT22;1760;52.480;13.422;2023-11-22T12:14:35;4.20;99.90
3492;DHT22;1760;52.480;13.422;2023-11-22T12:17:03;4.30;99.90
3492;DHT22;1760;52.480;13.422;2023-11-22T12:19:33;4.30;99.90
3492;DHT22;1760;52.480;13.422;2023-11-22T12:22:00;4.30;99.90
3492;DHT22;1760;52.480;13.422;2023-11-22T12:24:27;5.50;99.90
3492;DHT22;1760;52.480;13.422;2023-11-22T12:26:56;5.60;99.90
3492;DHT22;1760;52.480;13.422;2023-11-22T12:29:24;5.40;99.90
3492;DHT22;1760;52.480;13.422;2023-11-22T12:31:52;5.10;99.90
3492;DHT22;1760;52.480;13.422;2023-11-22T12:34:22;4.90;99.90
3492;DHT22;1760;52.480;13.422;2023-11-22T12:36:49;4.80;99.90
3492;DHT22;1760;52.480;13.422;2023-11-22T12:39:17;4.60;99.90
3492;DHT22;1760;52.480;13.422;2023-11-22T12:41:48;4.60;99.90
3492;DHT22;1760;52.480;13.422;2023-11-22T12:44:16;4.60;99.90
3492;DHT22;1760;52.480;13.422;2023-11-22T12:46:48;4.50;99.90
3492;DHT22;1760;52.480;13.422;2023-11-22T12:49:25;4.50;99.90
3492;DHT22;1760;52.480;13.422;2023-11-22T12:51:55;4.50;99.90
3492;DHT22;1760;52.480;13.422;2023-11-22T12:54:22;4.40;99.90
3492;DHT22;1760;52.480;13.422;2023-11-22T12:56:49;4.40;99.90
3492;DHT22;1760;52.480;13.422;2023-11-22T12:59:19;4.40;99.90
3492;DHT22;1760;52.480;13.422;2023-11-22T13:01:46;4.40;99.90
3492;DHT22;1760;52.480;13.422;2023-11-22T13:04:13;4.40;99.90
3492;DHT22;1760;52.480;13.422;2023-11-22T13:06:43;4.40;99.90
3492;DHT22;1760;52.480;13.422;2023-11-22T13:09:10;4.40;99.90
3492;DHT22;1760;52.480;13.422;2023-11-22T13:11:41;4.40;99.90
3492;DHT22;1760;52.480;13.422;2023-11-22T13:14:08;4.30;99.90
3492;DHT22;1760;52.480;13.422;2023-11-22T13:16:35;4.30;99.90
3492;DHT22;1760;52.480;13.422;2023-11-22T13:19:04;4.40;99.90
3492;DHT22;1760;52.480;13.422;2023-11-22T13:21:31;4.40;99.90
3492;DHT22;1760;52.480;13.422;2023-11-22T13:24:00;4.40;99.90
3492;DHT22;1760;52.480;13.422;2023-11-22T13:26:27;4.40;99.90
3492;DHT22;1760;52.480;13.422;2023-11-22T13:28:54;4.30;99.90
3492;DHT22;1760;52.480;13.422;2023-11-22T13:31:23;4.20;99.90
3492;DHT22;1760;52.480;13.422;2023-11-22T13:33:50;4.20;99.90
3492;DHT22;1760;52.480;13.422;2023-11-22T13:36:17;4.20;99.90
3492;DHT22;1760;52.480;13.422;2023-11-22T13:38:46;4.10;99.90
3492;DHT22;1760;52.480;13.422;2023-11-22T13:41:16;4.10;99.90
3492;DHT22;1760;52.480;13.422;2023-11-22T13:43:42;4.10;99.90
3492;DHT22;1760;52.480;13.422;2023-11-22T13:46:12;4.00;99.90
3492;DHT22;1760;52.480;13.422;2023-11-22T13:48:44;4.00;99.90
3492;DHT22;1760;52.480;13.422;2023-11-22T13:51:11;4.00;99.90
3492;DHT22;1760;52.480;13.422;2023-11-22T13:53:38;3.90;99.90
3492;DHT22;1760;52.480;13.422;2023-11-22T13:56:09;3.90;99.90
3492;DHT22;1760;52.480;13.422;2023-11-22T13:58:38;4.00;99.90
3492;DHT22;1760;52.480;13.422;2023-11-22T14:01:08;3.90;99.90
3492;DHT22;1760;52.480;13.422;2023-11-22T14:03:39;3.90;99.90
3492;DHT22;1760;52.480;13.422;2023-11-22T14:06:06;3.80;99.90
3492;DHT22;1760;52.480;13.422;2023-11-22T14:08:35;3.90;99.90
3492;DHT22;1760;52.480;13.422;2023-11-22T14:11:02;3.90;99.90
3492;DHT22;1760;52.480;13.422;2023-11-22T14:13:29;3.80;99.90
3492;DHT22;1760;52.480;13.422;2023-11-22T14:15:57;3.80;99.90
3492;DHT22;1760;52.480;13.422;2023-11-22T14:18:24;3.80;99.90
3492;DHT22;1760;52.480;13.422;2023-11-22T14:20:51;3.80;99.90
3492;DHT22;1760;52.480;13.422;2023-11-22T14:23:19;3.70;99.90
3492;DHT22;1760;52.480;13.422;2023-11-22T14:25:46;3.70;99.90
3492;DHT22;1760;52.480;13.422;2023-11-22T14:28:14;3.70;99.90
3492;DHT22;1760;52.480;13.422;2023-11-22T14:30:42;3.70;99.90
3492;DHT22;1760;52.480;13.422;2023-11-22T14:33:10;3.70;99.90
3492;DHT22;1760;52.480;13.422;2023-11-22T14:35:37;3.70;99.90
3492;DHT22;1760;52.480;13.422;2023-11-22T14:38:04;3.70;99.90
3492;DHT22;1760;52.480;13.422;2023-11-22T14:40:34;3.70;99.90
3492;DHT22;1760;52.480;13.422;2023-11-22T14:43:04;3.60;99.90
3492;DHT22;1760;52.480;13.422;2023-11-22T14:45:31;3.50;99.90
3492;DHT22;1760;52.480;13.422;2023-11-22T14:47:58;3.50;99.90
3492;DHT22;1760;52.480;13.422;2023-11-22T14:50:28;3.50;99.90
3492;DHT22;1760;52.480;13.422;2023-11-22T14:52:56;3.40;99.90
3492;DHT22;1760;52.480;13.422;2023-11-22T14:55:26;3.40;99.90
3492;DHT22;1760;52.480;13.422;2023-11-22T14:57:53;3.60;99.90
3492;DHT22;1760;52.480;13.422;2023-11-22T15:00:22;3.60;99.90
3492;DHT22;1760;52.480;13.422;2023-11-22T15:02:50;3.50;99.90
3492;DHT22;1760;52.480;13.422;2023-11-22T15:05:19;3.50;99.90
3492;DHT22;1760;52.480;13.422;2023-11-22T15:07:49;3.40;99.90
3492;DHT22;1760;52.480;13.422;2023-11-22T15:10:20;3.30;99.90
3492;DHT22;1760;52.480;13.422;2023-11-22T15:12:47;3.20;99.90
3492;DHT22;1760;52.480;13.422;2023-11-22T15:15:15;3.20;99.90
3492;DHT22;1760;52.480;13.422;2023-11-22T15:17:44;3.10;99.90
3492;DHT22;1760;52.480;13.422;2023-11-22T15:20:14;3.20;99.90
3492;DHT22;1760;52.480;13.422;2023-11-22T15:22:41;3.10;99.90
3492;DHT22;1760;52.480;13.422;2023-11-22T15:25:09;3.10;99.90
3492;DHT22;1760;52.480;13.422;2023-11-22T15:27:36;3.10;99.90
3492;DHT22;1760;52.480;13.422;2023-11-22T15:30:04;3.10;99.90
3492;DHT22;1760;52.480;13.422;2023-11-22T15:32:33;3.10;99.90
3492;DHT22;1760;52.480;13.422;2023-11-22T15:35:00;3.10;99.90
3492;DHT22;1760;52.480;13.422;2023-11-22T15:37:30;3.20;99.90
3492;DHT22;1760;52.480;13.422;2023-11-22T15:39:57;3.10;99.90
3492;DHT22;1760;52.480;13.422;2023-11-22T15:42:25;3.10;99.90
3492;DHT22;1760;52.480;13.422;2023-11-22T15:44:54;3.10;99.90
3492;DHT22;1760;52.480;13.422;2023-11-22T15:47:21;3.00;99.90
3492;DHT22;1760;52.480;13.422;2023-11-22T15:49:48;3.00;99.90
3492;DHT22;1760;52.480;13.422;2023-11-22T15:52:16;2.90;99.90
3492;DHT22;1760;52.480;13.422;2023-11-22T15:54:43;2.90;99.90
3492;DHT22;1760;52.480;13.422;2023-11-22T15:57:10;2.90;99.90
3492;DHT22;1760;52.480;13.422;2023-11-22T15:59:38;2.90;99.90
3492;DHT22;1760;52.480;13.422;2023-11-22T16:02:05;2.90;99.90
3492;DHT22;1760;52.480;13.422;2023-11-22T16:04:34;2.90;99.90
3492;DHT22;1760;52.480;13.422;2023-11-22T16:07:02;2.90;99.90